Time;durP1;ratioP1;P1;durP2;ratioP2;P2;SDS_P1;SDS_P2;PMS_P1;PMS_P2;Temp;Humidity;BMP_temperature;BMP_pressure;BME280_temperature;BME280_humidity;BME280_pressure;Samples;Min_cycle;Max_cycle;Signal;HPM_P1;HPM_P2
2024/04/18 00:00:41;;;;;;;8.43;5.60;;;;;;;3.02;87.34;99562.22;5449288;26;20321;-61
2024/04/18 00:03:08;;;;;;;8.90;5.43;;;;;;;3.00;87.55;99550.28;5449891;26;20281;-62
2024/04/18 00:05:38;;;;;;;10.77;5.53;;;;;;;2.97;87.55;99555.34;5450982;26;20230;-62
2024/04/18 00:08:05;;;;;;;7.93;5.07;;;;;;;2.97;87.30;99555.34;5449616;26;20849;-61
2024/04/18 00:10:40;;;;;;;6.77;4.57;;;;;;;2.93;87.36;99558.69;5448030;26;20250;-61
2024/04/18 00:13:07;;;;;;;7.70;5.27;;;;;;;2.90;87.67;99556.97;5447537;26;20242;-61
2024/04/18 00:15:36;;;;;;;8.20;5.20;;;;;;;2.88;87.31;99561.19;5450908;26;20231;-61
2024/04/18 00:18:04;;;;;;;10.03;5.10;;;;;;;2.87;87.49;99559.47;5450678;26;20338;-61
2024/04/18 00:20:34;;;;;;;7.87;5.10;;;;;;;2.88;87.46;99559.50;5450801;26;20351;-61
2024/04/18 00:23:01;;;;;;;7.17;4.57;;;;;;;2.88;87.39;99553.56;5450794;26;20322;-61
2024/04/18 00:25:33;;;;;;;8.93;4.90;;;;;;;2.87;87.12;99554.38;5449719;26;20246;-62
2024/04/18 00:28:03;;;;;;;9.23;4.53;;;;;;;2.85;87.25;99553.53;5446099;26;20246;-62
2024/04/18 00:30:33;;;;;;;6.47;4.67;;;;;;;2.80;87.13;99557.69;5439568;26;20262;-61
2024/04/18 00:33:00;;;;;;;6.80;4.73;;;;;;;2.73;86.97;99556.78;5450196;26;20284;-61
2024/04/18 00:35:30;;;;;;;7.77;5.13;;;;;;;2.73;87.17;99561.03;5451237;26;20234;-61
2024/04/18 00:37:57;;;;;;;8.73;5.10;;;;;;;2.70;87.22;99561.81;5451156;26;20230;-61
2024/04/18 00:40:27;;;;;;;7.73;4.97;;;;;;;2.66;87.15;99568.56;5441045;26;20269;-60
2024/04/18 00:42:55;;;;;;;8.13;4.90;;;;;;;2.64;87.52;99570.22;5451147;26;20246;-62
2024/04/18 00:45:27;;;;;;;6.00;4.87;;;;;;;2.62;87.27;99565.97;5449020;26;20387;-62
2024/04/18 00:47:55;;;;;;;7.17;4.73;;;;;;;2.57;87.23;99563.34;5450073;26;20579;-62
2024/04/18 00:50:25;;;;;;;9.10;4.73;;;;;;;2.56;86.91;99565.88;5450974;26;20318;-61
2024/04/18 00:52:52;;;;;;;8.43;5.10;;;;;;;2.47;87.05;99555.56;5451177;26;20320;-61
2024/04/18 00:55:23;;;;;;;8.43;5.30;;;;;;;2.51;87.00;99565.81;5451033;26;20759;-62
2024/04/18 00:57:50;;;;;;;8.90;5.57;;;;;;;2.49;87.16;99562.41;5438259;26;20580;-61
2024/04/18 01:00:20;;;;;;;8.83;4.93;;;;;;;2.47;86.91;99568.28;5450544;26;20242;-61
2024/04/18 01:02:50;;;;;;;11.17;5.10;;;;;;;2.39;87.00;99563.97;5451239;26;20662;-62
2024/04/18 01:05:20;;;;;;;8.93;5.00;;;;;;;2.39;87.25;99571.59;5447171;26;20246;-63
2024/04/18 01:07:47;;;;;;;6.67;4.77;;;;;;;2.34;87.27;99568.13;5444690;26;20321;-61
2024/04/18 01:10:17;;;;;;;8.40;5.03;;;;;;;2.33;87.79;99571.50;5450411;26;20720;-62
2024/04/18 01:12:54;;;;;;;7.47;5.10;;;;;;;2.32;87.61;99572.34;5450008;26;20242;-61
2024/04/18 01:15:24;;;;;;;8.00;4.80;;;;;;;2.26;87.80;99559.56;5449481;26;20250;-61
2024/04/18 01:17:54;;;;;;;8.00;4.90;;;;;;;2.32;87.67;99569.81;5447520;26;20362;-64
2024/04/18 01:20:26;;;;;;;10.57;5.57;;;;;;;2.33;87.62;99563.88;5447781;26;20281;-60
2024/04/18 01:22:53;;;;;;;7.40;4.70;;;;;;;2.34;87.79;99567.28;5447626;26;20246;-62
2024/04/18 01:25:23;;;;;;;9.50;5.70;;;;;;;2.36;87.39;99568.16;5448070;26;20277;-60
2024/04/18 01:27:55;;;;;;;9.60;4.90;;;;;;;2.35;87.26;99564.75;5449842;26;20773;-61
2024/04/18 01:30:22;;;;;;;6.77;4.60;;;;;;;2.33;87.07;99579.13;5450225;26;20234;-61
2024/04/18 01:32:52;;;;;;;9.37;4.53;;;;;;;2.28;87.09;99573.13;5450631;26;20234;-62
2024/04/18 01:35:19;;;;;;;8.30;4.90;;;;;;;2.24;87.33;99575.59;5450686;26;20736;-62
2024/04/18 01:37:49;;;;;;;6.90;4.83;;;;;;;2.24;87.42;99583.22;5447722;26;20654;-62
2024/04/18 01:40:16;;;;;;;9.83;5.10;;;;;;;2.24;87.50;99571.38;5448710;26;20337;-61
2024/04/18 01:42:46;;;;;;;8.17;5.13;;;;;;;2.25;87.39;99578.19;5447026;26;20628;-61
2024/04/18 01:45:17;;;;;;;7.67;5.23;;;;;;;2.28;87.39;99569.72;5449789;26;20292;-61
2024/04/18 01:47:47;;;;;;;6.83;4.80;;;;;;;2.28;87.32;99578.19;5450360;26;20234;-61
2024/04/18 01:50:14;;;;;;;9.07;5.83;;;;;;;2.27;86.81;99576.50;5450124;26;20725;-63
2024/04/18 01:52:44;;;;;;;7.33;4.73;;;;;;;2.23;86.47;99579.84;5450384;26;20230;-61
2024/04/18 01:55:11;;;;;;;10.63;5.23;;;;;;;2.21;86.91;99586.59;5418227;26;20223;-62
2024/04/18 01:57:42;;;;;;;9.53;5.20;;;;;;;2.20;87.15;99584.88;5445877;26;20350;-61
2024/04/18 02:00:10;;;;;;;9.07;5.53;;;;;;;2.21;86.91;99590.81;5449489;26;20234;-60
2024/04/18 02:02:43;;;;;;;8.37;5.03;;;;;;;2.20;86.40;99589.94;5446424;26;20300;-62
2024/04/18 02:05:13;;;;;;;8.90;5.50;;;;;;;2.14;86.42;99584.81;5449998;26;20829;-61
2024/04/18 02:07:40;;;;;;;8.70;5.73;;;;;;;2.08;86.54;99584.69;5449901;26;20242;-61
2024/04/18 02:10:09;;;;;;;7.70;5.33;;;;;;;2.09;86.29;99591.47;5449812;26;20817;-60
2024/04/18 02:12:37;;;;;;;8.50;6.00;;;;;;;2.03;86.24;99596.50;5449824;26;20346;-60
2024/04/18 02:15:07;;;;;;;8.37;5.67;;;;;;;1.99;86.54;99600.66;5446804;26;20250;-62
2024/04/18 02:17:34;;;;;;;11.47;6.43;;;;;;;1.97;86.75;99596.38;5451140;26;20577;-61
2024/04/18 02:20:07;;;;;;;9.53;5.57;;;;;;;1.94;86.33;99592.94;5432433;26;20634;-61
2024/04/18 02:22:34;;;;;;;7.30;5.50;;;;;;;1.92;86.81;99597.16;5439105;26;20759;-61
2024/04/18 02:25:10;;;;;;;11.63;5.23;;;;;;;1.91;87.01;99598.00;5453296;26;20230;-61
2024/04/18 02:27:38;;;;;;;7.17;5.50;;;;;;;1.90;86.66;99596.28;5453028;26;20307;-62
2024/04/18 02:30:09;;;;;;;6.40;4.80;;;;;;;1.87;86.77;99595.38;5452888;26;20273;-61
2024/04/18 02:32:37;;;;;;;7.77;5.13;;;;;;;1.87;87.04;99593.69;5452818;26;20307;-61
2024/04/18 02:35:10;;;;;;;8.13;5.10;;;;;;;1.87;87.02;99598.75;5450369;26;20351;-60
2024/04/18 02:37:37;;;;;;;7.60;5.13;;;;;;;1.89;87.13;99584.41;5450259;26;20625;-60
2024/04/18 02:40:07;;;;;;;7.57;5.07;;;;;;;1.89;86.81;99583.56;5453199;26;20231;-61
2024/04/18 02:42:34;;;;;;;8.77;5.30;;;;;;;1.91;86.81;99587.84;5452290;26;20246;-61
2024/04/18 02:45:04;;;;;;;8.27;5.43;;;;;;;1.90;86.52;99595.44;5452040;26;21123;-62
2024/04/18 02:47:31;;;;;;;10.07;5.77;;;;;;;1.85;85.98;99590.28;5452214;26;20755;-62
2024/04/18 02:50:01;;;;;;;8.30;5.03;;;;;;;1.83;86.55;99597.00;5452968;26;20237;-60
2024/04/18 02:52:31;;;;;;;8.07;5.33;;;;;;;1.82;86.39;99595.31;5448283;26;20577;-61
2024/04/18 02:55:01;;;;;;;9.80;6.20;;;;;;;1.81;86.30;99596.13;5449669;26;20732;-61
2024/04/18 02:57:28;;;;;;;11.63;6.67;;;;;;;1.81;86.07;99600.38;5452144;26;20273;-61
2024/04/18 02:59:59;;;;;;;7.50;6.13;;;;;;;1.78;86.48;99600.31;5452854;26;20757;-62
2024/04/18 03:02:27;;;;;;;8.30;5.77;;;;;;;1.78;86.55;99596.09;5452695;26;20234;-60
2024/04/18 03:04:56;;;;;;;6.97;5.77;;;;;;;1.78;86.71;99595.22;5447320;26;20713;-65
2024/04/18 03:07:24;;;;;;;6.73;6.03;;;;;;;1.78;86.73;99601.16;5451543;26;20350;-62
2024/04/18 03:09:56;;;;;;;9.07;6.30;;;;;;;1.76;86.41;99597.72;5450822;26;20359;-62
2024/04/18 03:12:23;;;;;;;8.13;5.80;;;;;;;1.75;86.49;99598.56;5445706;26;20286;-61
2024/04/18 03:14:53;;;;;;;8.80;6.13;;;;;;;1.76;86.77;99595.19;5451797;26;20276;-61
2024/04/18 03:17:20;;;;;;;9.87;6.17;;;;;;;1.79;86.80;99602.88;5451550;26;20242;-61
2024/04/18 03:19:50;;;;;;;6.23;5.37;;;;;;;1.79;86.53;99602.88;5452712;26;20382;-61
2024/04/18 03:22:17;;;;;;;8.07;6.10;;;;;;;1.78;86.64;99605.41;5450165;26;20357;-61
2024/04/18 03:24:47;;;;;;;7.27;5.17;;;;;;;1.74;86.59;99604.50;5452247;26;20588;-62
2024/04/18 03:27:17;;;;;;;8.70;5.50;;;;;;;1.71;86.63;99601.03;5451645;26;20298;-61
2024/04/18 03:29:47;;;;;;;7.03;5.30;;;;;;;1.76;86.63;99607.03;5447184;26;20242;-62
2024/04/18 03:32:14;;;;;;;9.30;5.23;;;;;;;1.72;86.68;99603.59;5450208;26;20287;-62
2024/04/18 03:34:44;;;;;;;10.43;6.30;;;;;;;1.69;86.68;99601.00;5452432;26;20581;-62
2024/04/18 03:37:14;;;;;;;7.97;5.77;;;;;;;1.67;86.73;99602.66;5452047;26;20234;-62
2024/04/18 03:39:44;;;;;;;9.40;6.00;;;;;;;1.64;86.89;99608.53;5449064;26;20258;-63
2024/04/18 03:42:14;;;;;;;8.17;6.37;;;;;;;1.64;86.72;99605.16;5451655;26;20241;-62
2024/04/18 03:44:46;;;;;;;12.50;6.70;;;;;;;1.65;86.74;99619.56;5452105;26;20242;-62
2024/04/18 03:47:16;;;;;;;8.70;6.90;;;;;;;1.60;86.93;99616.94;5451735;26;20242;-62
2024/04/18 03:49:46;;;;;;;7.50;6.37;;;;;;;1.57;86.77;99610.94;5449524;26;20836;-61
2024/04/18 03:52:13;;;;;;;8.30;5.90;;;;;;;1.56;87.05;99614.31;5451582;26;20250;-62
2024/04/18 03:54:43;;;;;;;10.73;6.47;;;;;;;1.57;87.10;99621.09;5433793;26;20226;-62
2024/04/18 03:57:27;;;;;;;11.07;7.00;;;;;;;1.60;87.23;99616.09;5451851;26;20813;-63
2024/04/18 03:59:59;;;;;;;8.77;5.80;;;;;;;1.62;87.21;99616.94;5447797;26;20306;-63
2024/04/18 04:02:27;;;;;;;9.23;6.00;;;;;;;1.65;87.07;99614.47;5450962;26;20288;-63
2024/04/18 04:04:56;;;;;;;13.07;6.03;;;;;;;1.72;87.19;99623.06;5451625;26;20294;-63
2024/04/18 04:07:25;;;;;;;9.07;6.50;;;;;;;1.72;87.04;99616.28;5448436;26;20748;-64
2024/04/18 04:09:54;;;;;;;9.03;6.47;;;;;;;1.80;86.42;99627.44;5451433;26;20713;-66
2024/04/18 04:12:21;;;;;;;7.93;5.77;;;;;;;1.86;86.99;99626.69;5451207;26;20234;-65
2024/04/18 04:14:51;;;;;;;9.40;5.93;;;;;;;1.94;86.78;99633.59;5451418;26;20246;-63
2024/04/18 04:17:21;;;;;;;11.07;6.43;;;;;;;1.97;86.37;99626.88;5451457;26;20234;-64
2024/04/18 04:19:51;;;;;;;8.63;5.83;;;;;;;2.00;86.14;99630.31;5451106;26;20747;-64
2024/04/18 04:22:18;;;;;;;8.03;5.73;;;;;;;2.05;86.14;99641.41;5448013;26;20257;-63
2024/04/18 04:24:49;;;;;;;10.17;5.97;;;;;;;2.13;86.36;99638.97;5448678;26;20242;-63
2024/04/18 04:27:16;;;;;;;11.80;6.73;;;;;;;2.27;86.42;99636.66;5444908;26;20255;-63
2024/04/18 04:29:46;;;;;;;9.43;6.63;;;;;;;2.36;85.83;99640.19;5450446;26;20246;-62
2024/04/18 04:32:22;;;;;;;10.60;6.40;;;;;;;2.51;85.49;99631.94;5450984;26;20268;-62
2024/04/18 04:34:53;;;;;;;8.07;6.53;;;;;;;2.67;84.62;99638.94;5451111;26;20234;-63
2024/04/18 04:37:20;;;;;;;8.97;6.73;;;;;;;2.75;83.85;99636.50;5451258;26;20236;-61
2024/04/18 04:39:50;;;;;;;11.27;6.60;;;;;;;2.88;83.96;99635.84;5451222;26;20732;-61
2024/04/18 04:42:17;;;;;;;9.67;5.87;;;;;;;3.01;83.07;99633.44;5447971;26;20752;-60
2024/04/18 04:44:47;;;;;;;10.10;5.70;;;;;;;3.10;82.71;99634.41;5443787;26;20257;-60
2024/04/18 04:47:14;;;;;;;8.27;5.93;;;;;;;3.18;82.34;99631.94;5449969;26;20338;-62
2024/04/18 04:49:46;;;;;;;7.90;5.67;;;;;;;3.34;82.30;99633.81;5450299;26;20813;-62
2024/04/18 04:52:14;;;;;;;12.80;6.60;;;;;;;3.52;81.92;99629.75;5451057;26;20720;-63
2024/04/18 04:54:46;;;;;;;8.67;5.73;;;;;;;3.63;80.84;99638.38;5449127;26;20778;-61
2024/04/18 04:57:14;;;;;;;8.47;6.13;;;;;;;3.68;79.95;99633.31;5446430;26;20242;-61
2024/04/18 04:59:45;;;;;;;7.93;6.07;;;;;;;3.67;79.65;99632.44;5442102;26;20771;-60
2024/04/18 05:02:12;;;;;;;8.00;6.00;;;;;;;3.70;79.93;99637.59;5450194;26;20234;-62
2024/04/18 05:04:42;;;;;;;10.07;6.07;;;;;;;3.78;79.35;99635.97;5441145;26;20250;-62
2024/04/18 05:07:12;;;;;;;7.97;5.87;;;;;;;3.79;78.34;99645.34;5450320;26;20808;-61
2024/04/18 05:09:42;;;;;;;7.07;5.60;;;;;;;3.76;78.42;99642.75;5450938;26;20245;-62
2024/04/18 05:12:09;;;;;;;8.30;6.20;;;;;;;3.72;78.72;99638.47;5451795;26;20334;-61
2024/04/18 05:14:39;;;;;;;7.90;5.90;;;;;;;3.82;79.24;99647.88;5446511;26;20674;-61
2024/04/18 05:17:06;;;;;;;9.23;6.43;;;;;;;3.96;78.75;99644.63;5447653;26;20354;-61
2024/04/18 05:19:36;;;;;;;9.00;6.00;;;;;;;4.20;78.12;99641.38;5444022;26;20234;-62
2024/04/18 05:22:03;;;;;;;10.00;7.03;;;;;;;4.55;77.38;99637.41;5445020;26;20246;-62
2024/04/18 05:24:36;;;;;;;8.43;5.83;;;;;;;4.91;76.28;99635.06;5444630;26;20284;-60
2024/04/18 05:27:04;;;;;;;8.00;5.73;;;;;;;5.31;75.93;99636.91;5443624;26;20238;-61
2024/04/18 05:32:20;;;;;;;10.00;6.73;;;;;;;5.24;73.54;99631.78;5449261;26;20250;-61
2024/04/18 05:34:49;;;;;;;7.43;5.73;;;;;;;4.87;74.17;99638.44;5446608;26;20284;-61
2024/04/18 05:37:19;;;;;;;9.77;6.10;;;;;;;4.49;75.91;99642.47;5448525;26;20233;-61
2024/04/18 05:39:54;;;;;;;11.50;7.20;;;;;;;4.30;77.52;99645.72;5446564;26;20258;-62
2024/04/18 05:42:24;;;;;;;10.23;6.63;;;;;;;4.22;78.28;99647.38;5448627;26;20346;-61
2024/04/18 05:44:54;;;;;;;10.70;7.03;;;;;;;4.18;78.73;99651.59;5449360;26;20288;-61
2024/04/18 05:47:24;;;;;;;11.07;7.83;;;;;;;4.11;79.08;99653.22;5449469;26;21048;-62
2024/04/18 05:49:54;;;;;;;9.53;6.57;;;;;;;4.19;79.85;99655.00;5448737;26;20736;-63
2024/04/18 05:52:24;;;;;;;8.90;6.40;;;;;;;4.23;79.95;99654.16;5441898;26;20743;-62
2024/04/18 05:54:57;;;;;;;10.50;6.63;;;;;;;4.30;79.42;99656.78;5450492;26;20827;-63
2024/04/18 05:57:26;;;;;;;10.37;6.67;;;;;;;4.40;79.79;99661.97;5445035;26;20261;-63
2024/04/18 05:59:56;;;;;;;10.37;6.53;;;;;;;4.67;79.32;99661.28;5446224;26;20282;-62
2024/04/18 06:02:26;;;;;;;8.83;6.70;;;;;;;5.66;81.09;99661.69;5448551;26;20336;-60
2024/04/18 06:04:56;;;;;;;11.90;6.27;;;;;;;7.53;72.02;99651.16;5447944;26;20276;-61
2024/04/18 06:07:26;;;;;;;9.77;6.50;;;;;;;9.21;67.88;99650.56;5450101;26;20250;-61
2024/04/18 06:09:59;;;;;;;7.83;6.07;;;;;;;10.31;62.58;99649.84;5448864;26;20234;-63
2024/04/18 06:12:29;;;;;;;7.67;6.23;;;;;;;11.06;55.40;99650.19;5449787;26;20762;-62
2024/04/18 06:14:59;;;;;;;8.10;6.20;;;;;;;10.52;55.53;99651.16;5447372;26;20277;-61
2024/04/18 06:17:30;;;;;;;7.73;6.07;;;;;;;9.39;57.45;99651.19;5448779;26;20289;-62
2024/04/18 06:20:00;;;;;;;7.77;6.27;;;;;;;8.41;60.39;99664.25;5446214;26;20243;-61
2024/04/18 06:22:30;;;;;;;10.43;6.23;;;;;;;7.61;62.72;99664.78;5449461;26;20234;-63
2024/04/18 06:25:02;;;;;;;11.27;7.80;;;;;;;6.89;65.73;99669.38;5444995;26;20286;-58
2024/04/18 06:27:33;;;;;;;10.00;7.13;;;;;;;6.23;68.33;99672.88;5449815;26;20737;-62
2024/04/18 06:30:03;;;;;;;9.80;7.43;;;;;;;5.77;70.45;99677.91;5449402;26;20342;-61
2024/04/18 06:32:32;;;;;;;9.63;8.03;;;;;;;5.78;72.67;99674.50;5449353;26;20238;-62
2024/04/18 06:35:02;;;;;;;11.53;8.00;;;;;;;5.88;72.28;99671.97;5449465;26;20246;-63
2024/04/18 06:37:32;;;;;;;9.57;7.30;;;;;;;6.52;71.97;99674.56;5446673;26;20733;-61
2024/04/18 06:40:05;;;;;;;7.13;6.13;;;;;;;7.16;68.20;99678.69;5449899;26;20329;-61
2024/04/18 06:42:35;;;;;;;9.90;7.07;;;;;;;7.26;67.64;99688.03;5446507;26;21255;-62
2024/04/18 06:45:05;;;;;;;10.13;6.80;;;;;;;7.60;66.64;99683.59;5449358;26;22233;-61
2024/04/18 06:47:35;;;;;;;8.10;6.47;;;;;;;7.34;65.37;99686.28;5449686;26;20393;-61
2024/04/18 06:50:05;;;;;;;9.77;6.60;;;;;;;7.29;66.89;99690.59;5449664;26;20214;-62
2024/04/18 06:52:36;;;;;;;7.00;5.83;;;;;;;7.40;66.62;99695.66;5449626;26;20265;-61
2024/04/18 06:55:08;;;;;;;8.03;6.57;;;;;;;7.78;66.02;99686.94;5446691;26;20285;-61
2024/04/18 06:57:39;;;;;;;10.43;6.30;;;;;;;8.65;65.35;99687.13;5446549;26;20234;-59
2024/04/18 07:00:11;;;;;;;9.73;6.07;;;;;;;9.56;60.55;99681.81;5447885;26;20618;-59
2024/04/18 07:02:41;;;;;;;8.23;5.73;;;;;;;9.32;58.57;99695.00;5448687;26;20241;-61
2024/04/18 07:05:11;;;;;;;8.33;6.33;;;;;;;8.67;60.35;99698.25;5452378;26;20242;-61
2024/04/18 07:07:41;;;;;;;7.00;5.00;;;;;;;9.71;60.83;99679.91;5447408;26;20238;-59
2024/04/18 07:10:14;;;;;;;7.53;4.60;;;;;;;9.95;57.55;99697.56;5451443;26;20310;-59
2024/04/18 07:12:45;;;;;;;8.17;4.87;;;;;;;9.49;57.04;99692.19;5452501;26;20285;-62
2024/04/18 07:15:15;;;;;;;7.23;4.87;;;;;;;8.67;59.40;99692.25;5451767;26;20238;-59
2024/04/18 07:17:45;;;;;;;7.43;4.83;;;;;;;8.27;61.44;99696.84;5446533;26;20354;-60
2024/04/18 07:20:13;;;;;;;7.40;6.13;;;;;;;7.89;62.22;99697.97;5449399;26;20302;-61
2024/04/18 07:22:43;;;;;;;7.37;5.27;;;;;;;7.37;64.60;99698.25;5452100;26;20706;-58
2024/04/18 07:25:15;;;;;;;7.10;5.60;;;;;;;6.95;67.02;99705.19;5451840;26;20339;-58
2024/04/18 07:27:45;;;;;;;7.87;5.63;;;;;;;7.10;68.29;99712.00;5448986;26;20665;-58
2024/04/18 07:30:15;;;;;;;5.07;4.57;;;;;;;7.37;65.67;99703.38;5451326;26;20230;-60
2024/04/18 07:32:45;;;;;;;5.70;5.07;;;;;;;7.65;65.47;99707.50;5451694;26;20330;-55
2024/04/18 07:35:15;;;;;;;4.50;4.10;;;;;;;7.98;65.28;99711.56;5451663;26;20230;-60
2024/04/18 07:37:46;;;;;;;5.23;4.37;;;;;;;9.17;61.90;99707.16;5451025;26;20725;-60
2024/04/18 07:40:21;;;;;;;5.10;3.50;;;;;;;11.47;54.26;99700.91;5417755;26;20263;-60
2024/04/18 07:42:51;;;;;;;4.40;4.00;;;;;;;12.11;51.76;99692.66;5452323;26;20783;-58
2024/04/18 07:45:21;;;;;;;4.10;3.70;;;;;;;11.69;51.37;99695.31;5452108;26;20790;-60
2024/04/18 07:47:51;;;;;;;4.77;3.90;;;;;;;10.98;51.95;99703.63;5452006;26;20281;-60
2024/04/18 07:50:22;;;;;;;3.80;3.30;;;;;;;10.19;54.15;99703.22;5451899;26;20230;-59
2024/04/18 07:52:51;;;;;;;3.77;3.40;;;;;;;10.30;55.08;99697.03;5452112;26;20714;-60
2024/04/18 07:55:38;;;;;;;3.90;3.40;;;;;;;10.64;54.83;99696.47;5446378;26;20288;-57
2024/04/18 07:58:08;;;;;;;6.43;3.87;;;;;;;11.00;52.01;99697.53;5449401;26;20283;-57
2024/04/18 08:00:39;;;;;;;5.17;3.33;;;;;;;10.17;53.60;99703.25;5451461;26;20230;-56
2024/04/18 08:03:11;;;;;;;4.37;3.30;;;;;;;9.35;56.38;99711.22;5450834;26;20760;-58
2024/04/18 08:05:42;;;;;;;5.83;3.70;;;;;;;8.60;59.19;99713.72;5446541;26;20250;-60
2024/04/18 08:08:15;;;;;;;4.13;3.73;;;;;;;7.89;61.05;99708.22;5450023;26;20269;-62
2024/04/18 08:10:51;;;;;;;3.00;2.70;;;;;;;7.37;63.22;99714.47;5451589;26;20578;-63
2024/04/18 08:13:41;;;;;;;3.37;3.07;;;;;;;7.00;64.50;99717.16;5451960;26;20280;-61
2024/04/18 08:16:17;;;;;;;3.23;2.90;;;;;;;6.79;65.62;99719.75;5450050;26;20238;-61
2024/04/18 08:18:47;;;;;;;5.80;3.60;;;;;;;6.61;66.33;99719.78;5450922;26;21234;-61
2024/04/18 08:21:17;;;;;;;3.70;2.90;;;;;;;6.44;67.26;99714.66;5449818;26;20230;-62
2024/04/18 08:23:51;;;;;;;5.07;3.20;;;;;;;6.43;67.56;99715.50;5426138;26;20247;-61
2024/04/18 08:26:23;;;;;;;4.63;3.27;;;;;;;6.40;67.38;99716.34;5432794;26;20234;-63
2024/04/18 08:28:53;;;;;;;4.70;3.30;;;;;;;6.33;67.89;99718.91;5440816;26;20246;-63
2024/04/18 08:31:25;;;;;;;3.87;3.40;;;;;;;6.22;69.00;99719.78;5450267;26;20284;-61
2024/04/18 08:33:55;;;;;;;4.40;3.77;;;;;;;6.16;70.03;99721.47;5449606;26;20685;-65
2024/04/18 08:36:35;;;;;;;3.90;3.40;;;;;;;6.06;70.32;99715.47;5450211;26;20349;-64
2024/04/18 08:39:05;;;;;;;5.33;3.70;;;;;;;6.03;70.77;99716.31;5448396;26;20346;-62
2024/04/18 08:41:38;;;;;;;5.97;4.30;;;;;;;6.07;71.41;99716.34;5450114;26;20226;-63
2024/04/18 08:44:13;;;;;;;4.63;3.63;;;;;;;5.98;71.45;99725.69;5446860;26;20245;-62
2024/04/18 08:46:46;;;;;;;4.97;4.00;;;;;;;5.85;71.99;99720.53;5448561;26;20246;-62
2024/04/18 08:49:17;;;;;;;4.23;3.63;;;;;;;5.67;72.76;99717.09;5446897;26;20576;-60
2024/04/18 08:51:49;;;;;;;3.90;3.30;;;;;;;5.77;73.43;99726.47;5450468;26;20345;-60
2024/04/18 08:54:18;;;;;;;3.80;3.33;;;;;;;6.45;72.75;99712.09;5448062;26;20724;-61
2024/04/18 08:56:53;;;;;;;4.53;3.60;;;;;;;7.18;68.47;99713.69;5451651;26;20632;-62
2024/04/18 08:59:24;;;;;;;3.30;3.00;;;;;;;7.58;66.74;99695.56;5442398;26;20336;-62
2024/04/18 09:01:54;;;;;;;4.00;2.63;;;;;;;7.86;65.61;99703.97;5450394;26;20342;-61
2024/04/18 09:04:24;;;;;;;3.57;2.70;;;;;;;8.22;63.56;99702.88;5450077;26;20242;-63
2024/04/18 09:06:53;;;;;;;2.43;2.20;;;;;;;8.57;61.24;99701.75;5450586;26;20294;-61
2024/04/18 09:09:25;;;;;;;4.83;2.70;;;;;;;8.63;61.41;99703.41;5448036;26;20702;-61
2024/04/18 09:11:59;;;;;;;1.93;1.83;;;;;;;8.42;58.60;99701.88;5450916;26;20572;-61
2024/04/18 09:14:29;;;;;;;3.57;2.20;;;;;;;8.07;59.45;99709.84;5450432;26;20238;-61
2024/04/18 09:16:59;;;;;;;3.40;2.30;;;;;;;7.80;59.82;99704.00;5448270;26;20330;-60
2024/04/18 09:19:29;;;;;;;4.27;3.13;;;;;;;7.62;61.48;99712.66;5451216;26;20277;-60
2024/04/18 09:22:02;;;;;;;7.13;3.30;;;;;;;7.60;61.95;99704.13;5448370;26;20233;-60
2024/04/18 09:24:32;;;;;;;2.40;2.20;;;;;;;7.59;61.55;99710.09;5446916;26;20277;-61
2024/04/18 09:27:05;;;;;;;2.30;2.10;;;;;;;7.44;61.14;99705.91;5449422;26;20238;-61
2024/04/18 09:29:35;;;;;;;2.63;1.93;;;;;;;7.37;61.22;99711.91;5450270;26;20342;-62
2024/04/18 09:32:06;;;;;;;2.83;2.27;;;;;;;7.55;61.32;99698.16;5450224;26;21111;-60
2024/04/18 09:34:37;;;;;;;2.90;2.40;;;;;;;7.83;60.38;99692.88;5451255;26;20226;-59
2024/04/18 09:37:07;;;;;;;4.37;2.30;;;;;;;7.95;60.77;99697.91;5451334;26;20967;-60
2024/04/18 09:39:38;;;;;;;2.30;2.03;;;;;;;8.28;60.43;99699.38;5449190;26;20346;-59
2024/04/18 09:42:16;;;;;;;2.47;2.10;;;;;;;8.58;60.10;99700.91;5450068;26;20230;-60
2024/04/18 09:44:48;;;;;;;3.00;2.33;;;;;;;8.70;58.33;99690.50;5450589;26;20298;-61
2024/04/18 09:47:19;;;;;;;2.57;2.20;;;;;;;8.82;57.21;99680.97;5450081;26;20279;-59
2024/04/18 09:49:49;;;;;;;3.47;2.43;;;;;;;8.96;56.83;99679.13;5445426;26;20250;-61
2024/04/18 09:52:23;;;;;;;3.73;2.73;;;;;;;9.01;57.61;99689.34;5448833;26;20234;-60
2024/04/18 09:54:54;;;;;;;3.30;2.17;;;;;;;9.06;57.73;99682.44;5447995;26;20678;-61
2024/04/18 09:57:27;;;;;;;3.17;2.87;;;;;;;9.12;57.86;99678.06;5448219;26;20683;-62
2024/04/18 09:59:57;;;;;;;3.20;2.83;;;;;;;9.28;57.69;99675.31;5440903;26;20817;-62
2024/04/18 10:02:29;;;;;;;3.07;2.73;;;;;;;9.53;57.12;99678.41;5449651;26;20309;-63
2024/04/18 10:04:59;;;;;;;2.90;2.70;;;;;;;9.83;56.24;99677.13;5450266;26;20238;-63
2024/04/18 10:07:30;;;;;;;2.97;2.57;;;;;;;9.83;55.37;99664.28;5449731;26;20653;-63
2024/04/18 10:10:01;;;;;;;3.57;2.27;;;;;;;9.56;55.31;99661.22;5445379;26;20585;-63
2024/04/18 10:12:37;;;;;;;5.07;2.57;;;;;;;9.19;55.50;99678.84;5446628;26;20737;-62
2024/04/18 10:15:09;;;;;;;3.60;2.53;;;;;;;8.88;56.39;99668.91;5450492;26;20234;-63
2024/04/18 10:17:42;;;;;;;2.70;2.50;;;;;;;8.55;56.47;99682.09;5444744;26;20281;-62
2024/04/18 10:20:15;;;;;;;3.83;2.80;;;;;;;8.16;59.35;99684.94;5449288;26;20736;-62
2024/04/18 10:22:45;;;;;;;4.80;3.20;;;;;;;7.67;63.29;99707.50;5444671;26;20291;-61
2024/04/18 10:25:18;;;;;;;3.97;3.33;;;;;;;7.08;68.18;99708.59;5448588;26;20282;-61
2024/04/18 10:27:51;;;;;;;4.60;3.23;;;;;;;6.71;70.28;99706.97;5448462;26;20253;-61
2024/04/18 10:30:25;;;;;;;3.63;2.93;;;;;;;6.56;73.68;99706.97;5439932;26;20234;-62
2024/04/18 10:32:55;;;;;;;3.97;2.90;;;;;;;6.44;75.67;99712.09;5448156;26;20639;-63
2024/04/18 10:35:27;;;;;;;4.07;2.97;;;;;;;6.47;75.55;99701.84;5449506;26;20230;-62
2024/04/18 10:37:57;;;;;;;3.70;2.80;;;;;;;6.64;75.77;99704.41;5449052;26;20728;-61
2024/04/18 10:40:27;;;;;;;3.30;2.73;;;;;;;6.88;75.04;99703.50;5449929;26;20285;-59
2024/04/18 10:43:14;;;;;;;2.60;2.40;;;;;;;7.23;74.42;99706.84;5452857;26;20768;-59
2024/04/18 10:45:46;;;;;;;3.00;2.70;;;;;;;7.92;73.80;99703.09;5451975;26;20230;-60
2024/04/18 10:48:19;;;;;;;3.63;2.50;;;;;;;8.57;72.05;99699.19;5451914;26;20293;-59
2024/04/18 10:50:51;;;;;;;4.03;2.63;;;;;;;8.78;70.17;99694.72;5452244;26;20278;-60
2024/04/18 10:53:22;;;;;;;2.30;2.10;;;;;;;8.58;70.32;99711.19;5452024;26;20234;-60
2024/04/18 10:55:52;;;;;;;2.73;2.00;;;;;;;8.38;70.33;99703.63;5448770;26;20246;-60
2024/04/18 10:58:25;;;;;;;2.23;2.03;;;;;;;8.14;69.47;99696.09;5445536;26;20289;-60
2024/04/18 11:00:59;;;;;;;3.17;2.10;;;;;;;7.90;70.38;99700.53;5450517;26;20242;-61
2024/04/18 11:03:30;;;;;;;3.53;2.30;;;;;;;7.71;69.60;99699.78;5444576;26;20253;-60
2024/04/18 11:06:02;;;;;;;2.60;2.23;;;;;;;7.71;70.20;99704.91;5441344;26;20258;-61
2024/04/18 11:08:32;;;;;;;2.60;2.13;;;;;;;7.76;70.20;99704.88;5450862;26;20280;-64
2024/04/18 11:11:04;;;;;;;3.70;2.80;;;;;;;8.24;69.65;99696.00;5449703;26;20258;-61
2024/04/18 11:13:37;;;;;;;2.80;2.60;;;;;;;8.61;68.80;99688.00;5441719;26;20255;-60
2024/04/18 11:16:07;;;;;;;2.90;2.70;;;;;;;8.77;68.33;99696.44;5449862;26;20257;-61
2024/04/18 11:18:37;;;;;;;3.37;2.30;;;;;;;8.76;68.44;99704.16;5451677;26;20316;-60
2024/04/18 11:21:08;;;;;;;4.60;2.90;;;;;;;8.84;67.54;99692.09;5448462;26;20284;-61
2024/04/18 11:23:38;;;;;;;2.40;2.20;;;;;;;8.88;68.98;99702.31;5450027;26;20234;-60
2024/04/18 11:26:20;;;;;;;2.30;1.80;;;;;;;8.88;67.77;99699.75;5451979;26;20572;-59
2024/04/18 11:28:54;;;;;;;1.90;1.77;;;;;;;8.76;68.26;99696.44;5452149;26;20310;-62
2024/04/18 11:31:24;;;;;;;1.80;1.70;;;;;;;8.85;68.51;99696.38;5451383;26;20235;-61
2024/04/18 11:33:55;;;;;;;2.33;2.00;;;;;;;9.22;66.89;99701.94;5446908;26;20250;-60
2024/04/18 11:36:26;;;;;;;3.07;2.53;;;;;;;9.34;65.66;99693.22;5450430;26;20319;-61
2024/04/18 11:39:02;;;;;;;5.23;2.67;;;;;;;9.45;64.99;99688.81;5451343;26;20267;-62
2024/04/18 11:41:33;;;;;;;3.37;2.77;;;;;;;9.43;65.05;99688.00;5446831;26;20289;-62
2024/04/18 11:44:07;;;;;;;3.73;2.47;;;;;;;9.30;63.72;99696.72;5436806;26;20733;-61
2024/04/18 11:46:37;;;;;;;2.47;2.27;;;;;;;9.05;64.21;99704.69;5451211;26;20758;-62
2024/04/18 11:49:07;;;;;;;2.43;2.07;;;;;;;8.82;65.41;99709.22;5451294;26;20242;-60
2024/04/18 11:51:37;;;;;;;2.30;2.03;;;;;;;8.49;66.93;99710.38;5435902;26;20234;-62
2024/04/18 11:54:07;;;;;;;1.97;1.53;;;;;;;8.15;68.00;99715.75;5441446;26;20293;-61
2024/04/18 11:56:37;;;;;;;1.87;1.50;;;;;;;7.88;68.42;99711.63;5448291;26;20276;-63
2024/04/18 11:59:09;;;;;;;2.30;1.87;;;;;;;7.71;70.13;99716.88;5452273;26;20234;-61